createdAt,value
2018-02-08T00:00:53.062Z,42.50
2018-02-08T00:03:20.921Z,43.60
2018-02-08T00:05:48.806Z,39.97
2018-02-08T00:08:16.736Z,43.50
2018-02-08T00:10:44.599Z,44.33
2018-02-08T00:13:12.423Z,41.33
2018-02-08T00:15:40.288Z,41.87
2018-02-08T00:18:08.315Z,44.30
2018-02-08T00:20:36.168Z,43.57
2018-02-08T00:23:04.045Z,42.97
2018-02-08T00:25:31.868Z,42.90
2018-02-08T00:27:59.712Z,36.57
2018-02-08T00:30:27.612Z,43.40
2018-02-08T00:32:55.480Z,40.20
2018-02-08T00:35:23.345Z,40.60
2018-02-08T00:37:51.223Z,45.00
2018-02-08T00:40:19.146Z,42.40
2018-02-08T00:42:54.167Z,40.40
2018-02-08T00:45:22.011Z,37.90
2018-02-08T00:47:49.864Z,42.80
2018-02-08T00:50:17.751Z,40.43
2018-02-08T00:52:45.606Z,41.60
2018-02-08T00:55:13.701Z,40.70
2018-02-08T00:57:41.574Z,38.20
2018-02-08T01:00:09.423Z,42.87
2018-02-08T01:02:37.266Z,39.47
2018-02-08T01:05:05.136Z,40.83
2018-02-08T01:07:33.020Z,41.97
2018-02-08T01:10:00.854Z,45.13
2018-02-08T01:12:28.722Z,39.63
2018-02-08T01:14:56.564Z,40.77
2018-02-08T01:17:24.418Z,41.90
2018-02-08T01:19:52.287Z,44.10
2018-02-08T01:22:20.128Z,43.97
2018-02-08T01:24:47.981Z,43.50
2018-02-08T01:27:15.904Z,44.00
2018-02-08T01:29:43.740Z,44.07
2018-02-08T01:32:11.595Z,44.57
2018-02-08T01:34:39.486Z,34.37
2018-02-08T01:37:07.378Z,40.20
2018-02-08T01:39:35.240Z,41.87
2018-02-08T01:42:03.166Z,43.77
2018-02-08T01:44:31.023Z,44.77
2018-02-08T01:46:58.857Z,43.57
2018-02-08T01:49:32.831Z,46.37
2018-02-08T01:52:00.684Z,43.73
2018-02-08T01:54:28.538Z,43.93
2018-02-08T01:56:56.626Z,44.10
2018-02-08T01:59:24.488Z,44.37
2018-02-08T02:01:52.343Z,44.07
2018-02-08T02:04:20.225Z,43.27
2018-02-08T02:06:48.054Z,42.37
2018-02-08T02:09:15.924Z,37.27
2018-02-08T02:11:43.798Z,44.17
2018-02-08T02:14:11.667Z,42.60
2018-02-08T02:16:39.557Z,40.87
2018-02-08T02:19:07.452Z,41.23
2018-02-08T02:21:35.290Z,45.93
2018-02-08T02:24:03.194Z,42.13
2018-02-08T02:26:31.094Z,43.20
2018-02-08T02:28:58.926Z,45.53
2018-02-08T02:31:26.818Z,26.17
2018-02-08T02:33:54.695Z,44.37
2018-02-08T02:36:22.527Z,43.70
2018-02-08T02:38:50.371Z,43.47
2018-02-08T02:41:18.237Z,44.60
2018-02-08T02:43:46.102Z,43.50
2018-02-08T02:46:13.995Z,43.33
2018-02-08T02:48:41.908Z,43.60
2018-02-08T02:51:09.766Z,36.87
2018-02-08T02:53:37.613Z,33.67
2018-02-08T02:56:05.475Z,38.60
2018-02-08T02:58:33.319Z,41.80
2018-02-08T03:01:01.166Z,39.97
2018-02-08T03:03:29.036Z,39.00
2018-02-08T03:05:56.882Z,38.67
2018-02-08T03:08:24.727Z,42.03
2018-02-08T03:10:52.595Z,41.40
2018-02-08T03:13:20.459Z,40.93
2018-02-08T03:15:48.331Z,41.30
2018-02-08T03:18:16.199Z,39.87
2018-02-08T03:20:44.090Z,29.87
2018-02-08T03:23:11.932Z,38.07
2018-02-08T03:25:39.802Z,30.60
2018-02-08T03:28:08.073Z,36.33
2018-02-08T03:30:56.911Z,30.07
2018-02-08T03:33:24.760Z,34.23
2018-02-08T03:35:52.634Z,29.40
2018-02-08T03:38:20.511Z,28.60
2018-02-08T03:40:48.367Z,36.37
2018-02-08T03:43:16.231Z,36.07
2018-02-08T03:45:44.111Z,40.93
2018-02-08T03:48:11.997Z,34.33
2018-02-08T03:50:39.862Z,37.73
2018-02-08T03:53:07.739Z,37.57
2018-02-08T03:55:35.581Z,37.60
2018-02-08T03:58:03.426Z,38.97
2018-02-08T04:00:31.333Z,39.03
2018-02-08T04:02:59.176Z,32.70
2018-02-08T04:05:27.039Z,37.43
2018-02-08T04:07:54.914Z,38.33
2018-02-08T04:10:22.766Z,36.57
2018-02-08T04:12:50.603Z,37.60
2018-02-08T04:15:18.476Z,38.00
2018-02-08T04:17:46.305Z,37.10
2018-02-08T04:20:14.166Z,36.90
2018-02-08T04:22:42.039Z,35.93
2018-02-08T04:25:09.896Z,35.60
2018-02-08T04:27:37.727Z,36.37
2018-02-08T04:30:05.589Z,36.70
2018-02-08T04:32:33.439Z,36.67
2018-02-08T04:35:01.322Z,35.83
2018-02-08T04:37:29.196Z,37.70
2018-02-08T04:40:03.045Z,35.90
2018-02-08T04:42:50.801Z,35.20
2018-02-08T04:45:24.831Z,36.20
2018-02-08T04:47:59.568Z,37.27
2018-02-08T04:50:27.467Z,34.30
2018-02-08T04:52:55.318Z,34.57
2018-02-08T04:55:23.184Z,35.63
2018-02-08T04:57:51.035Z,39.70
2018-02-08T05:00:18.879Z,35.43
2018-02-08T05:02:46.831Z,36.97
2018-02-08T05:05:14.654Z,34.27
2018-02-08T05:07:42.515Z,38.43
2018-02-08T05:10:10.380Z,38.50
2018-02-08T05:12:38.211Z,36.80
2018-02-08T05:15:06.052Z,40.10
2018-02-08T05:17:33.930Z,41.57
2018-02-08T05:20:01.790Z,34.30
2018-02-08T05:22:29.633Z,39.00
2018-02-08T05:24:57.505Z,39.77
2018-02-08T05:27:25.343Z,39.53
2018-02-08T05:29:53.178Z,38.00
2018-02-08T05:32:21.035Z,36.23
2018-02-08T05:34:48.896Z,37.47
2018-02-08T05:37:16.774Z,39.93
2018-02-08T05:39:44.693Z,36.07
2018-02-08T05:42:12.566Z,36.30
2018-02-08T05:44:40.462Z,38.73
2018-02-08T05:47:08.310Z,38.77
2018-02-08T05:49:36.175Z,33.40
2018-02-08T05:52:04.047Z,32.57
2018-02-08T05:54:31.943Z,38.10
2018-02-08T05:56:59.807Z,39.53
2018-02-08T05:59:27.667Z,36.90
2018-02-08T06:01:55.535Z,40.60
2018-02-08T06:04:23.416Z,39.00
2018-02-08T06:06:51.272Z,40.87
2018-02-08T06:09:19.139Z,38.87
2018-02-08T06:11:48.700Z,37.47
2018-02-08T06:14:16.538Z,38.63
2018-02-08T06:16:44.410Z,36.87
2018-02-08T06:19:12.327Z,36.50
2018-02-08T06:21:40.236Z,37.07
2018-02-08T06:24:08.069Z,36.93
2018-02-08T06:26:35.946Z,40.77
2018-02-08T06:29:03.779Z,38.93
2018-02-08T06:31:31.644Z,37.43
2018-02-08T06:33:59.515Z,36.60
2018-02-08T06:36:27.379Z,37.47
2018-02-08T06:38:55.281Z,35.23
2018-02-08T06:41:23.117Z,38.83
2018-02-08T06:43:51.031Z,36.43
2018-02-08T06:46:18.914Z,38.80
2018-02-08T06:48:46.749Z,39.40
2018-02-08T06:51:14.633Z,37.27
2018-02-08T06:53:42.539Z,36.83
2018-02-08T06:56:10.380Z,41.80
2018-02-08T06:58:38.230Z,39.33
2018-02-08T07:01:06.278Z,38.07
2018-02-08T07:03:34.126Z,38.17
2018-02-08T07:06:01.991Z,40.07
2018-02-08T07:08:29.880Z,40.53
2018-02-08T07:10:57.757Z,38.07
2018-02-08T07:13:25.604Z,39.40
2018-02-08T07:15:53.574Z,46.07
2018-02-08T07:18:21.432Z,39.87
2018-02-08T07:20:49.280Z,40.93
2018-02-08T07:23:17.150Z,40.03
2018-02-08T07:25:45.257Z,40.53
2018-02-08T07:28:13.111Z,38.40
2018-02-08T07:30:41.005Z,39.60
2018-02-08T07:33:08.840Z,42.37
2018-02-08T07:35:36.748Z,38.70
2018-02-08T07:38:04.595Z,39.07
2018-02-08T07:40:32.502Z,40.80
2018-02-08T07:43:00.419Z,38.40
2018-02-08T07:45:28.354Z,31.60
2018-02-08T07:47:56.220Z,40.97
2018-02-08T07:50:24.059Z,37.13
2018-02-08T07:52:51.935Z,38.43
2018-02-08T07:55:19.837Z,39.20
2018-02-08T07:57:47.788Z,39.93
2018-02-08T08:00:15.654Z,39.57
2018-02-08T08:02:43.491Z,39.57
2018-02-08T08:05:11.352Z,39.90
2018-02-08T08:07:39.253Z,41.37
2018-02-08T08:10:07.123Z,39.40
2018-02-08T08:12:34.981Z,38.13
2018-02-08T08:15:02.866Z,37.17
2018-02-08T08:17:30.743Z,35.37
2018-02-08T08:19:58.676Z,44.77
2018-02-08T08:22:26.541Z,40.73
2018-02-08T08:24:54.464Z,39.80
2018-02-08T08:27:23.049Z,43.50
2018-02-08T08:29:49.187Z,42.60
2018-02-08T08:32:15.288Z,42.17
2018-02-08T08:34:41.377Z,41.20
2018-02-08T08:37:07.884Z,41.13
2018-02-08T08:39:34.736Z,39.77
2018-02-08T08:42:00.855Z,42.87
2018-02-08T08:44:26.980Z,40.47
2018-02-08T08:46:53.055Z,41.73
2018-02-08T08:49:19.880Z,41.03
2018-02-08T08:51:46.008Z,48.83
2018-02-08T08:54:12.104Z,42.73
2018-02-08T08:56:38.249Z,37.00
2018-02-08T08:59:04.495Z,41.00
2018-02-08T09:01:30.603Z,41.40
2018-02-08T09:03:57.569Z,41.10
2018-02-08T09:06:23.687Z,37.07
2018-02-08T09:08:50.613Z,37.63
2018-02-08T09:11:18.576Z,35.97
2018-02-08T09:13:46.434Z,35.17
2018-02-08T09:16:14.319Z,33.00
2018-02-08T09:18:42.290Z,35.70
2018-02-08T09:21:10.189Z,32.20
2018-02-08T09:23:38.048Z,33.50
2018-02-08T09:26:05.905Z,33.03
2018-02-08T09:28:33.834Z,33.47
2018-02-08T09:31:01.831Z,33.87
2018-02-08T09:33:29.795Z,41.57
2018-02-08T09:35:56.756Z,38.73
2018-02-08T09:38:24.635Z,40.93
2018-02-08T09:40:52.881Z,35.30
2018-02-08T09:43:20.948Z,42.80
2018-02-08T09:45:49.102Z,49.27
2018-02-08T09:48:15.185Z,42.33
2018-02-08T09:50:43.051Z,45.80
2018-02-08T09:53:10.872Z,45.57
2018-02-08T09:55:38.741Z,48.43
2018-02-08T09:58:06.642Z,41.43
2018-02-08T10:00:34.530Z,42.40
2018-02-08T10:03:03.217Z,44.83
2018-02-08T10:05:31.084Z,41.80
2018-02-08T10:07:58.950Z,45.67
2018-02-08T10:10:26.819Z,46.67
2018-02-08T10:12:54.716Z,41.70
2018-02-08T10:15:23.499Z,41.80
2018-02-08T10:17:51.356Z,43.67
2018-02-08T10:20:19.237Z,49.30
2018-02-08T10:22:47.112Z,38.40
2018-02-08T10:25:14.986Z,36.63
2018-02-08T10:27:43.127Z,36.33
2018-02-08T10:30:10.983Z,36.37
2018-02-08T10:32:38.849Z,35.30
2018-02-08T10:35:06.680Z,36.07
2018-02-08T10:37:34.608Z,37.33
2018-02-08T10:40:02.543Z,43.93
2018-02-08T10:42:30.395Z,44.80
2018-02-08T10:44:58.315Z,38.93
2018-02-08T10:47:26.163Z,44.87
2018-02-08T10:49:54.048Z,42.87
2018-02-08T10:52:21.954Z,39.57
2018-02-08T10:54:49.803Z,42.07
2018-02-08T10:57:17.679Z,38.90
2018-02-08T10:59:45.593Z,39.73
2018-02-08T11:02:13.512Z,42.83
2018-02-08T11:04:41.383Z,43.07
2018-02-08T11:07:09.243Z,39.87
2018-02-08T11:09:37.111Z,44.80
2018-02-08T11:12:04.975Z,47.50
2018-02-08T11:14:32.849Z,48.40
2018-02-08T11:17:00.736Z,39.33
2018-02-08T11:19:28.588Z,47.93
2018-02-08T11:21:56.531Z,47.47
2018-02-08T11:24:24.433Z,43.93
2018-02-08T11:26:52.331Z,39.60
2018-02-08T11:29:20.268Z,47.90
2018-02-08T11:31:48.103Z,39.80
2018-02-08T11:34:16.040Z,35.87
2018-02-08T11:36:43.894Z,36.20
2018-02-08T11:39:11.867Z,37.70
2018-02-08T11:41:40.102Z,39.07
2018-02-08T11:44:08.101Z,33.67
2018-02-08T11:46:36.012Z,35.27
2018-02-08T11:49:10.384Z,45.30
2018-02-08T11:51:38.292Z,33.60
2018-02-08T11:54:06.144Z,30.30
2018-02-08T11:56:34.027Z,37.23
2018-02-08T11:59:01.937Z,38.77
2018-02-08T12:01:29.963Z,33.57
2018-02-08T12:03:57.866Z,32.87
2018-02-08T12:06:25.694Z,35.00
2018-02-08T12:08:53.560Z,40.77
2018-02-08T12:11:21.410Z,31.70
2018-02-08T12:13:49.246Z,35.60
2018-02-08T12:16:17.135Z,37.40
2018-02-08T12:18:45.015Z,38.27
2018-02-08T12:21:12.907Z,34.93
2018-02-08T12:23:40.746Z,34.90
2018-02-08T12:26:08.633Z,38.20
2018-02-08T12:28:36.497Z,33.93
2018-02-08T12:31:04.358Z,45.10
2018-02-08T12:33:32.242Z,38.20
2018-02-08T12:36:00.088Z,38.33
2018-02-08T12:38:27.963Z,37.80
2018-02-08T12:40:55.866Z,36.30
2018-02-08T12:43:23.744Z,36.43
2018-02-08T12:45:51.597Z,38.63
2018-02-08T12:48:19.638Z,30.87
2018-02-08T12:50:47.480Z,36.40
2018-02-08T12:53:15.346Z,33.80
2018-02-08T12:55:43.231Z,33.70
2018-02-08T12:58:11.252Z,39.63
2018-02-08T13:00:39.114Z,43.70
2018-02-08T13:03:07.017Z,34.63
2018-02-08T13:05:34.857Z,38.67
2018-02-08T13:08:02.707Z,42.50
2018-02-08T13:10:30.571Z,38.00
2018-02-08T13:12:58.399Z,35.13
2018-02-08T13:15:26.247Z,37.27
2018-02-08T13:17:54.116Z,38.50
2018-02-08T13:20:21.952Z,38.83
2018-02-08T13:22:49.790Z,34.60
2018-02-08T13:25:17.657Z,38.93
2018-02-08T13:27:45.503Z,35.50
2018-02-08T13:30:13.333Z,34.20
2018-02-08T13:32:41.214Z,39.20
2018-02-08T13:35:09.038Z,31.80
2018-02-08T13:37:36.924Z,32.03
2018-02-08T13:40:10.839Z,34.60
2018-02-08T13:42:38.698Z,33.23
2018-02-08T13:45:06.534Z,32.77
2018-02-08T13:47:49.226Z,34.17
2018-02-08T13:50:17.944Z,39.03
2018-02-08T13:53:01.651Z,33.67
2018-02-08T13:55:34.511Z,42.23
2018-02-08T13:58:20.319Z,33.60
2018-02-08T14:00:51.115Z,30.67
2018-02-08T14:03:18.991Z,36.00
2018-02-08T14:05:46.858Z,30.57
2018-02-08T14:08:14.696Z,32.17
2018-02-08T14:10:42.552Z,34.60
2018-02-08T14:13:10.439Z,27.40
2018-02-08T14:15:38.275Z,33.43
2018-02-08T14:18:06.367Z,31.17
2018-02-08T14:20:34.445Z,31.90
2018-02-08T14:23:02.371Z,29.60
2018-02-08T14:25:30.207Z,29.93
2018-02-08T14:27:58.097Z,29.00
2018-02-08T14:30:25.945Z,29.77
2018-02-08T14:32:53.895Z,31.20
2018-02-08T14:35:21.758Z,30.07
2018-02-08T14:37:49.591Z,27.60
2018-02-08T14:40:17.454Z,30.30
2018-02-08T14:42:45.311Z,30.07
2018-02-08T14:45:13.144Z,33.80
2018-02-08T14:47:40.986Z,30.80
2018-02-08T14:50:08.876Z,27.07
2018-02-08T14:52:36.736Z,38.17
2018-02-08T14:55:04.612Z,28.97
2018-02-08T14:57:32.488Z,29.37
2018-02-08T15:00:00.372Z,32.53
2018-02-08T15:02:28.295Z,30.30
2018-02-08T15:04:56.250Z,38.53
2018-02-08T15:07:24.095Z,32.23
2018-02-08T15:09:51.941Z,28.33
2018-02-08T15:12:19.884Z,33.87
2018-02-08T15:14:47.760Z,32.50
2018-02-08T15:17:15.599Z,30.93
2018-02-08T15:19:43.483Z,29.27
2018-02-08T15:22:11.382Z,27.67
2018-02-08T15:24:39.227Z,30.00
2018-02-08T15:27:07.080Z,30.47
2018-02-08T15:29:34.939Z,31.73
2018-02-08T15:32:02.813Z,28.80
2018-02-08T15:34:30.700Z,29.13
2018-02-08T15:36:58.543Z,30.47
2018-02-08T15:39:26.375Z,28.77
2018-02-08T15:41:54.520Z,29.20
2018-02-08T15:44:22.401Z,29.50
2018-02-08T15:46:50.248Z,28.27
2018-02-08T15:49:19.025Z,28.53
2018-02-08T15:51:46.988Z,27.60
2018-02-08T15:54:14.830Z,27.43
2018-02-08T15:56:42.708Z,28.80
2018-02-08T15:59:10.576Z,27.67
2018-02-08T16:01:38.441Z,27.70
2018-02-08T16:04:06.300Z,31.07
2018-02-08T16:06:34.175Z,29.33
2018-02-08T16:09:02.024Z,26.60
2018-02-08T16:11:29.890Z,34.73
2018-02-08T16:13:57.721Z,28.90
2018-02-08T16:16:25.632Z,29.23
2018-02-08T16:18:53.525Z,27.33
2018-02-08T16:21:21.357Z,27.30
2018-02-08T16:23:49.201Z,27.23
2018-02-08T16:26:17.112Z,30.67
2018-02-08T16:28:44.950Z,30.90
2018-02-08T16:31:12.786Z,30.17
2018-02-08T16:33:40.656Z,29.83
2018-02-08T16:38:48.556Z,29.57
2018-02-08T16:41:16.412Z,39.07
2018-02-08T16:43:44.262Z,31.57
2018-02-08T16:46:12.145Z,33.60
2018-02-08T16:48:40.048Z,48.93
2018-02-08T16:51:07.924Z,34.70
2018-02-08T16:53:35.785Z,31.93
2018-02-08T16:56:03.648Z,36.30
2018-02-08T16:58:31.478Z,26.60
2018-02-08T17:00:59.350Z,26.37
2018-02-08T17:03:27.273Z,26.10
2018-02-08T17:05:55.135Z,28.07
2018-02-08T17:08:23.027Z,27.30
2018-02-08T17:10:50.896Z,28.27
2018-02-08T17:13:18.752Z,30.63
2018-02-08T17:15:46.695Z,31.53
2018-02-08T17:18:14.562Z,30.13
2018-02-08T17:20:42.419Z,24.80
2018-02-08T17:23:10.299Z,26.53
2018-02-08T17:25:38.146Z,26.17
2018-02-08T17:28:05.975Z,26.60
2018-02-08T17:30:33.840Z,26.80
2018-02-08T17:33:01.694Z,26.27
2018-02-08T17:35:29.571Z,32.37
2018-02-08T17:37:57.468Z,32.80
2018-02-08T17:40:25.365Z,32.50
2018-02-08T17:42:53.212Z,27.97
2018-02-08T17:45:21.088Z,31.67
2018-02-08T17:47:48.937Z,29.90
2018-02-08T17:50:16.952Z,29.90
2018-02-08T17:52:44.924Z,35.80
2018-02-08T17:55:12.772Z,32.30
2018-02-08T17:57:40.646Z,29.93
2018-02-08T18:00:08.527Z,30.80
2018-02-08T18:02:36.444Z,25.60
2018-02-08T18:05:04.266Z,30.53
2018-02-08T18:07:32.130Z,29.37
2018-02-08T18:10:00.078Z,29.00
2018-02-08T18:12:28.037Z,29.77
2018-02-08T18:14:55.894Z,29.93
2018-02-08T18:17:23.748Z,31.17
2018-02-08T18:19:51.602Z,29.50
2018-02-08T18:22:19.500Z,31.90
2018-02-08T18:24:47.356Z,29.50
2018-02-08T18:27:15.594Z,27.63
2018-02-08T18:29:43.471Z,31.37
2018-02-08T18:32:11.322Z,32.70
2018-02-08T18:34:39.204Z,30.07
2018-02-08T18:37:07.113Z,31.47
2018-02-08T18:39:34.958Z,27.03
2018-02-08T18:42:02.836Z,26.90
2018-02-08T18:44:30.696Z,27.80
2018-02-08T18:46:58.553Z,28.57
2018-02-08T18:49:26.443Z,30.60
2018-02-08T18:51:54.297Z,31.03
2018-02-08T18:54:22.133Z,28.23
2018-02-08T18:56:49.992Z,28.10
2018-02-08T18:59:17.818Z,29.63
2018-02-08T19:01:45.656Z,27.80
2018-02-08T19:04:13.535Z,27.80
2018-02-08T19:06:41.416Z,31.23
2018-02-08T19:09:09.252Z,32.70
2018-02-08T19:11:37.164Z,27.93
2018-02-08T19:14:05.004Z,27.10
2018-02-08T19:16:32.853Z,30.67
2018-02-08T19:19:00.723Z,27.47
2018-02-08T19:21:28.578Z,30.47
2018-02-08T19:23:56.433Z,31.23
2018-02-08T19:26:24.328Z,28.10
2018-02-08T19:28:52.188Z,32.93
2018-02-08T19:31:20.020Z,37.53
2018-02-08T19:33:47.899Z,33.10
2018-02-08T19:36:15.743Z,28.33
2018-02-08T19:38:43.669Z,30.07
2018-02-08T19:41:11.562Z,30.83
2018-02-08T19:43:39.416Z,34.77
2018-02-08T19:46:07.278Z,28.07
2018-02-08T19:48:35.546Z,29.10
2018-02-08T19:51:03.514Z,29.57
2018-02-08T19:53:31.577Z,28.23
2018-02-08T19:55:59.478Z,32.03
2018-02-08T19:58:27.325Z,30.40
2018-02-08T20:00:55.150Z,28.87
2018-02-08T20:03:23.002Z,29.43
2018-02-08T20:05:50.851Z,31.00
2018-02-08T20:08:18.737Z,30.23
2018-02-08T20:10:46.611Z,28.97
2018-02-08T20:13:14.450Z,29.70
2018-02-08T20:15:42.316Z,29.63
2018-02-08T20:18:10.214Z,31.43
2018-02-08T20:20:38.147Z,29.97
2018-02-08T20:23:06.016Z,30.60
2018-02-08T20:25:40.192Z,31.13
2018-02-08T20:28:08.019Z,30.23
2018-02-08T20:30:35.879Z,30.00
2018-02-08T20:33:03.790Z,30.77
2018-02-08T20:35:31.862Z,30.87
2018-02-08T20:38:00.135Z,31.50
2018-02-08T20:40:30.052Z,29.30
2018-02-08T20:43:03.997Z,31.03
2018-02-08T20:45:31.898Z,32.03
2018-02-08T20:47:59.744Z,32.00
2018-02-08T20:50:27.595Z,33.67
2018-02-08T20:52:55.475Z,34.83
2018-02-08T20:55:23.378Z,31.60
2018-02-08T20:57:51.263Z,32.73
2018-02-08T21:00:19.179Z,31.60
2018-02-08T21:02:47.079Z,30.50
2018-02-08T21:05:14.936Z,28.23
2018-02-08T21:07:42.795Z,30.30
2018-02-08T21:10:10.682Z,28.60
2018-02-08T21:12:38.537Z,29.23
2018-02-08T21:15:06.411Z,31.23
2018-02-08T21:17:34.260Z,28.73
2018-02-08T21:20:02.303Z,31.53
2018-02-08T21:22:30.190Z,31.50
2018-02-08T21:24:58.026Z,27.37
2018-02-08T21:27:25.885Z,30.43
2018-02-08T21:29:53.771Z,31.40
2018-02-08T21:32:21.649Z,31.57
2018-02-08T21:34:49.531Z,31.20
2018-02-08T21:37:17.438Z,33.57
2018-02-08T21:39:45.462Z,32.63
2018-02-08T21:42:13.366Z,32.70
2018-02-08T21:44:41.226Z,31.57
2018-02-08T21:47:09.080Z,31.33
2018-02-08T21:49:37.120Z,30.50
2018-02-08T21:52:04.997Z,31.37
2018-02-08T21:54:32.843Z,32.77
2018-02-08T21:57:00.683Z,31.20
2018-02-08T21:59:28.672Z,32.37
2018-02-08T22:01:56.535Z,31.47
2018-02-08T22:04:24.697Z,32.57
2018-02-08T22:06:52.620Z,31.97
2018-02-08T22:09:20.442Z,29.33
2018-02-08T22:11:48.304Z,29.87
2018-02-08T22:14:16.188Z,30.50
2018-02-08T22:16:44.191Z,30.47
2018-02-08T22:19:12.120Z,29.80
2018-02-08T22:21:40.017Z,28.57
2018-02-08T22:24:07.872Z,28.80
2018-02-08T22:26:35.900Z,28.00
2018-02-08T22:29:03.780Z,32.67
2018-02-08T22:31:31.625Z,30.13
2018-02-08T22:33:59.468Z,33.90
2018-02-08T22:36:27.374Z,32.43
2018-02-08T22:38:55.552Z,34.23
2018-02-08T22:41:23.433Z,33.17
2018-02-08T22:43:51.314Z,32.90
2018-02-08T22:46:19.159Z,32.07
2018-02-08T22:48:47.042Z,31.17
2018-02-08T22:51:14.970Z,33.57
2018-02-08T22:53:42.810Z,33.13
2018-02-08T22:56:11.028Z,33.03
2018-02-08T22:58:38.878Z,35.17
2018-02-08T23:01:06.749Z,32.50
2018-02-08T23:03:34.648Z,35.13
2018-02-08T23:06:02.628Z,31.67
2018-02-08T23:08:31.462Z,33.13
2018-02-08T23:10:59.307Z,33.47
2018-02-08T23:13:27.211Z,31.17
2018-02-08T23:15:55.062Z,28.70
2018-02-08T23:18:23.008Z,26.30
2018-02-08T23:20:50.883Z,30.00
2018-02-08T23:23:18.722Z,30.50
2018-02-08T23:25:46.655Z,29.80
2018-02-08T23:28:14.619Z,30.10
2018-02-08T23:30:42.472Z,29.87
2018-02-08T23:33:10.436Z,31.00
2018-02-08T23:35:38.296Z,27.87
2018-02-08T23:38:06.165Z,26.50
2018-02-08T23:40:34.107Z,28.90
2018-02-08T23:43:01.980Z,27.80
2018-02-08T23:45:29.934Z,26.90
2018-02-08T23:47:57.885Z,28.87
2018-02-08T23:50:25.747Z,28.80
2018-02-08T23:52:53.685Z,28.50
2018-02-08T23:55:21.531Z,28.53
2018-02-08T23:57:49.406Z,29.23
